Time;durP1;ratioP1;P1;durP2;ratioP2;P2;SDS_P1;SDS_P2;PMS_P1;PMS_P2;Temp;Humidity;BMP_temperature;BMP_pressure;BME280_temperature;BME280_humidity;BME280_pressure;Samples;Min_cycle;Max_cycle;Signal;HPM_P1;HPM_P2
2022/01/13 00:01:47;;;;;;;0.90;0.90;;;;;;;-6.10;89.36;93441.09;4917991;28;20620;-72
2022/01/13 00:04:15;;;;;;;0.90;0.90;;;;;;;-6.22;89.92;93440.69;4917912;28;20578;-73
2022/01/13 00:06:44;;;;;;;0.80;0.80;;;;;;;-6.03;89.97;93445.41;4918044;28;20477;-72
2022/01/13 00:09:11;;;;;;;0.70;0.70;;;;;;;-5.90;88.82;93444.16;4917704;28;20498;-72
2022/01/13 00:11:39;;;;;;;1.07;1.07;;;;;;;-5.96;88.09;93439.03;4921397;28;20574;-72
2022/01/13 00:17:11;;;;;;;0.77;0.77;;;;;;;-6.01;89.21;93447.91;4884322;28;20595;-73
2022/01/13 00:22:50;;;;;;;0.90;0.90;;;;;;;-6.14;88.00;93448.31;4881007;29;20631;-72
2022/01/13 00:25:19;;;;;;;1.30;1.30;;;;;;;-6.07;87.94;93435.41;4880991;29;20194;-72
2022/01/13 00:27:53;;;;;;;1.10;1.10;;;;;;;-5.93;86.02;93451.47;4911147;28;20582;-72
2022/01/13 00:30:21;;;;;;;0.60;0.60;;;;;;;-5.95;85.97;93448.09;4921671;28;20559;-72
2022/01/13 00:32:48;;;;;;;0.90;0.90;;;;;;;-5.81;85.78;93459.19;4921002;28;20458;-72
2022/01/13 00:35:17;;;;;;;1.20;1.20;;;;;;;-5.77;86.05;93467.50;4921028;28;20582;-73
2022/01/13 00:37:45;;;;;;;1.13;1.13;;;;;;;-5.72;85.76;93479.16;4921254;28;20312;-72
2022/01/13 00:40:14;;;;;;;0.80;0.80;;;;;;;-5.84;85.59;93483.69;4920986;28;20587;-73
2022/01/13 00:42:41;;;;;;;1.23;1.23;;;;;;;-5.94;85.20;93479.28;4921317;28;20569;-73
2022/01/13 00:45:14;;;;;;;1.33;1.33;;;;;;;-5.88;85.86;93486.88;4920970;28;20589;-72
2022/01/13 00:47:41;;;;;;;0.70;0.70;;;;;;;-6.02;86.56;93465.91;4919067;28;20225;-72
2022/01/13 00:50:10;;;;;;;1.07;1.00;;;;;;;-5.99;87.25;93466.03;4918501;28;20491;-72
2022/01/13 00:52:37;;;;;;;1.63;1.63;;;;;;;-5.98;87.77;93483.28;4918232;28;20190;-72
2022/01/13 00:55:10;;;;;;;1.00;1.00;;;;;;;-6.02;87.21;93495.41;4918319;28;20717;-73
2022/01/13 00:57:37;;;;;;;1.00;1.00;;;;;;;-6.09;87.83;93496.84;4918668;28;20479;-73
2022/01/13 01:00:05;;;;;;;1.20;1.20;;;;;;;-6.16;87.49;93496.59;4918495;28;20585;-73
2022/01/13 01:02:33;;;;;;;0.90;0.90;;;;;;;-6.29;88.46;93497.81;4919125;28;20576;-73
2022/01/13 01:05:00;;;;;;;0.93;0.93;;;;;;;-6.20;87.59;93507.13;4920499;28;20529;-73
2022/01/13 01:07:27;;;;;;;1.43;1.43;;;;;;;-6.18;87.28;93503.06;4920759;28;20213;-73
2022/01/13 01:09:58;;;;;;;0.90;0.90;;;;;;;-6.21;87.48;93501.38;4920901;28;20478;-73
2022/01/13 01:12:26;;;;;;;3.07;0.97;;;;;;;-6.16;87.14;93497.44;4920862;28;20232;-73
2022/01/13 01:14:57;;;;;;;0.80;0.80;;;;;;;-6.35;88.09;93482.84;4920317;28;20657;-73
2022/01/13 01:17:24;;;;;;;1.10;1.10;;;;;;;-6.31;88.39;93492.81;4920274;28;20538;-73
2022/01/13 01:19:52;;;;;;;0.77;0.77;;;;;;;-6.26;88.27;93492.16;4920244;28;20570;-73
2022/01/13 01:22:54;;;;;;;0.70;0.70;;;;;;;-6.16;88.47;93484.31;4919908;28;20753;-73
2022/01/13 01:28:11;;;;;;;0.73;0.73;;;;;;;-6.12;86.95;93486.06;4942306;28;20476;-73
2022/01/13 01:30:42;;;;;;;1.47;1.47;;;;;;;-6.10;86.43;93486.97;4959154;28;20566;-73
2022/01/13 01:33:13;;;;;;;1.80;1.70;;;;;;;-6.16;87.80;93476.94;4959496;28;20500;-73
2022/01/13 01:35:40;;;;;;;1.13;1.13;;;;;;;-6.17;87.69;93488.38;4959214;28;20471;-73
2022/01/13 01:38:09;;;;;;;0.80;0.80;;;;;;;-6.17;87.18;93490.84;4958987;28;20585;-73
2022/01/13 01:40:36;;;;;;;1.30;1.30;;;;;;;-6.17;87.47;93490.00;4959105;28;20596;-73
2022/01/13 01:43:05;;;;;;;0.70;0.70;;;;;;;-6.12;87.54;93500.81;4958874;28;20596;-73
2022/01/13 01:45:41;;;;;;;1.73;1.63;;;;;;;-6.22;86.20;93504.59;4958808;28;20557;-73
2022/01/13 01:48:09;;;;;;;0.80;0.80;;;;;;;-6.25;85.94;93514.31;4958685;28;20519;-73
2022/01/13 01:50:38;;;;;;;0.83;0.83;;;;;;;-6.44;87.81;93507.13;4957814;28;20532;-73
2022/01/13 01:53:06;;;;;;;1.63;1.53;;;;;;;-6.40;88.13;93509.72;4958247;28;20542;-73
2022/01/13 01:55:35;;;;;;;1.20;1.20;;;;;;;-6.34;89.06;93509.94;4958328;28;20212;-73
2022/01/13 01:58:04;;;;;;;2.03;1.40;;;;;;;-6.29;87.85;93502.72;4959142;28;20600;-73
2022/01/13 02:00:31;;;;;;;1.17;1.17;;;;;;;-6.33;87.52;93511.63;4958300;28;20620;-73
2022/01/13 02:03:00;;;;;;;0.80;0.80;;;;;;;-6.41;87.28;93512.13;4957658;28;20254;-73
2022/01/13 02:05:27;;;;;;;1.97;1.87;;;;;;;-6.43;87.26;93521.94;4957720;28;20565;-73
2022/01/13 02:07:54;;;;;;;1.73;1.73;;;;;;;-6.52;88.58;93513.38;4958561;28;20576;-73
2022/01/13 02:10:22;;;;;;;2.20;1.53;;;;;;;-6.64;88.86;93512.94;4939547;28;20500;-73
2022/01/13 02:12:52;;;;;;;0.70;0.70;;;;;;;-6.51;87.80;93532.25;4939233;28;20462;-73
2022/01/13 02:15:33;;;;;;;1.03;1.03;;;;;;;-6.47;87.31;93529.13;4948368;28;20631;-73
2022/01/13 02:18:03;;;;;;;1.10;1.10;;;;;;;-6.60;88.36;93500.84;4958217;28;20227;-73
2022/01/13 02:20:49;;;;;;;2.30;1.10;;;;;;;-6.46;86.96;93524.25;4957678;28;20212;-73
2022/01/13 02:23:33;;;;;;;0.60;0.60;;;;;;;-6.52;86.37;93525.66;4958055;28;20594;-73
2022/01/13 02:26:01;;;;;;;0.97;0.97;;;;;;;-6.55;88.20;93503.47;4958813;28;20712;-73
2022/01/13 02:28:29;;;;;;;1.30;1.30;;;;;;;-6.65;87.80;93499.03;4958367;28;20591;-73
2022/01/13 02:30:56;;;;;;;1.60;1.60;;;;;;;-6.56;88.19;93517.38;4958899;28;20469;-73
2022/01/13 02:33:23;;;;;;;1.83;1.83;;;;;;;-6.74;89.11;93497.06;4957354;28;20497;-73
2022/01/13 02:35:52;;;;;;;1.23;1.23;;;;;;;-6.61;89.19;93505.72;4957751;28;20204;-73
2022/01/13 02:38:19;;;;;;;1.10;1.10;;;;;;;-6.57;88.44;93505.84;4957726;28;20618;-73
2022/01/13 02:40:54;;;;;;;1.13;1.13;;;;;;;-6.60;89.42;93504.94;4958694;28;20200;-73
2022/01/13 02:43:22;;;;;;;0.60;0.60;;;;;;;-6.80;89.93;93505.06;4957741;28;20246;-73
2022/01/13 02:46:04;;;;;;;1.13;1.13;;;;;;;-6.97;90.40;93496.25;4957896;28;20226;-73
2022/01/13 02:48:35;;;;;;;1.00;1.00;;;;;;;-6.89;89.83;93492.47;4957506;28;20580;-73
2022/01/13 02:51:04;;;;;;;1.10;1.10;;;;;;;-6.82;90.35;93491.91;4957112;28;20569;-73
2022/01/13 02:53:31;;;;;;;0.70;0.70;;;;;;;-6.99;89.91;93494.53;4958207;28;20259;-73
2022/01/13 02:56:02;;;;;;;0.50;0.50;;;;;;;-7.17;90.27;93480.81;4957498;28;20578;-73
2022/01/13 02:58:30;;;;;;;0.97;0.97;;;;;;;-7.02;89.83;93495.25;4957338;28;20579;-73
2022/01/13 03:00:57;;;;;;;0.60;0.60;;;;;;;-6.89;88.37;93496.53;4957713;28;20494;-73
2022/01/13 03:03:29;;;;;;;1.37;1.23;;;;;;;-7.03;89.78;93493.56;4957395;28;20230;-73
2022/01/13 03:05:56;;;;;;;0.60;0.60;;;;;;;-7.20;90.04;93487.19;4957320;28;20467;-73
2022/01/13 03:08:25;;;;;;;2.30;1.57;;;;;;;-7.16;89.45;93492.31;4957356;28;20617;-73
2022/01/13 03:10:52;;;;;;;0.70;0.70;;;;;;;-7.10;89.40;93505.59;4957589;28;20484;-73
2022/01/13 03:13:22;;;;;;;0.60;0.60;;;;;;;-7.15;90.31;93502.94;4957117;28;20473;-73
2022/01/13 03:15:49;;;;;;;0.80;0.80;;;;;;;-7.24;90.55;93497.69;4957298;28;20569;-73
2022/01/13 03:18:17;;;;;;;0.60;0.60;;;;;;;-7.09;90.30;93500.72;4957080;28;20590;-73
2022/01/13 03:20:44;;;;;;;0.77;0.77;;;;;;;-7.12;90.14;93498.16;4957132;28;20457;-73
2022/01/13 03:23:17;;;;;;;0.70;0.70;;;;;;;-7.20;90.53;93488.03;4957387;28;20496;-73
2022/01/13 03:25:47;;;;;;;0.80;0.80;;;;;;;-7.04;89.46;93484.53;4956770;28;20687;-73
2022/01/13 03:28:17;;;;;;;1.10;1.10;;;;;;;-6.91;87.60;93486.66;4956752;28;20592;-73
2022/01/13 03:30:45;;;;;;;0.90;0.90;;;;;;;-6.97;86.82;93498.69;4956984;28;20531;-73
2022/01/13 03:33:14;;;;;;;0.83;0.83;;;;;;;-6.98;86.51;93497.00;4957119;28;20563;-73
2022/01/13 03:35:43;;;;;;;0.93;0.93;;;;;;;-6.98;87.02;93501.09;4956398;28;20553;-73
2022/01/13 03:38:10;;;;;;;0.83;0.83;;;;;;;-6.96;86.78;93500.38;4957300;28;20211;-73
2022/01/13 03:40:38;;;;;;;5.93;1.27;;;;;;;-7.00;87.31;93492.84;4956219;28;20568;-73
2022/01/13 03:43:07;;;;;;;0.77;0.77;;;;;;;-6.95;86.08;93503.66;4956094;28;20228;-73
2022/01/13 03:45:34;;;;;;;1.00;1.00;;;;;;;-6.99;86.09;93489.63;4956749;28;20523;-73
2022/01/13 03:48:02;;;;;;;0.90;0.90;;;;;;;-7.08;87.22;93501.53;4957689;28;20588;-73
2022/01/13 03:50:30;;;;;;;1.70;1.20;;;;;;;-7.26;89.04;93484.53;4957112;28;20580;-73
2022/01/13 03:53:47;;;;;;;1.17;1.17;;;;;;;-7.16;88.61;93489.84;4956770;28;20580;-73
2022/01/13 03:57:04;;;;;;;0.67;0.67;;;;;;;-7.25;89.12;93494.41;4956607;28;20688;-73
2022/01/13 04:00:07;;;;;;;0.70;0.70;;;;;;;-7.19;87.88;93469.25;4957023;28;20579;-73
2022/01/13 04:02:36;;;;;;;1.13;1.13;;;;;;;-7.04;86.50;93498.44;4924198;28;20577;-73
2022/01/13 04:05:03;;;;;;;1.77;1.77;;;;;;;-7.10;85.32;93503.97;4955939;28;20220;-73
2022/01/13 04:07:31;;;;;;;1.57;1.57;;;;;;;-7.05;85.80;93509.88;4956475;28;20250;-73
2022/01/13 04:10:28;;;;;;;2.00;2.00;;;;;;;-6.99;86.52;93502.75;4956778;28;20591;-73
2022/01/13 04:12:56;;;;;;;1.90;1.63;;;;;;;-7.08;86.50;93507.28;4956591;28;20504;-73
2022/01/13 04:15:28;;;;;;;0.70;0.70;;;;;;;-7.06;86.72;93518.03;4956356;28;20640;-73
2022/01/13 04:17:57;;;;;;;2.87;2.87;;;;;;;-7.05;86.96;93522.16;4956094;28;20556;-73
2022/01/13 04:20:25;;;;;;;2.43;1.53;;;;;;;-7.15;86.37;93517.66;4957357;28;20218;-73
2022/01/13 04:22:52;;;;;;;0.93;0.93;;;;;;;-7.14;87.53;93514.44;4956681;28;20543;-73
2022/01/13 04:25:22;;;;;;;1.00;1.00;;;;;;;-7.14;87.65;93519.34;4956381;28;20554;-73
2022/01/13 04:27:50;;;;;;;0.70;0.70;;;;;;;-7.15;87.00;93540.59;4957029;28;20237;-73
2022/01/13 04:30:48;;;;;;;0.93;0.93;;;;;;;-7.33;87.93;93521.91;4956754;28;20678;-73
2022/01/13 04:33:17;;;;;;;0.93;0.93;;;;;;;-7.37;88.15;93532.38;4956298;28;20553;-73
2022/01/13 04:35:45;;;;;;;1.47;1.37;;;;;;;-7.34;88.04;93542.31;4957133;28;20204;-73
2022/01/13 04:38:13;;;;;;;1.10;1.10;;;;;;;-7.42;88.30;93534.66;4955954;28;20561;-73
2022/01/13 04:40:45;;;;;;;1.43;1.33;;;;;;;-7.39;88.53;93533.94;4957176;28;20583;-73
2022/01/13 04:43:13;;;;;;;0.87;0.87;;;;;;;-7.30;87.43;93544.09;4956236;28;20230;-73
2022/01/13 04:45:41;;;;;;;1.00;1.00;;;;;;;-7.31;86.65;93547.31;4956924;28;20571;-73
2022/01/13 04:48:09;;;;;;;0.70;0.70;;;;;;;-7.55;87.26;93548.06;4956910;28;20583;-73
2022/01/13 04:50:37;;;;;;;3.50;1.57;;;;;;;-7.49;87.67;93541.75;4955697;28;20560;-73
2022/01/13 04:53:07;;;;;;;1.13;1.13;;;;;;;-7.37;86.56;93554.44;4955689;28;20667;-73
2022/01/13 04:55:36;;;;;;;1.23;1.23;;;;;;;-7.62;87.07;93547.78;4955355;28;20628;-73
2022/01/13 04:58:05;;;;;;;1.23;1.23;;;;;;;-7.63;87.51;93554.28;4957427;28;20623;-73
2022/01/13 05:00:33;;;;;;;1.10;1.10;;;;;;;-7.73;87.19;93542.44;4959630;28;20510;-73
2022/01/13 05:03:01;;;;;;;1.13;1.13;;;;;;;-7.47;86.76;93555.72;4959391;28;20692;-73
2022/01/13 05:05:28;;;;;;;1.97;1.87;;;;;;;-7.68;86.84;93560.63;4957364;28;20568;-73
2022/01/13 05:07:57;;;;;;;1.07;1.07;;;;;;;-7.85;88.04;93534.59;4959248;28;20596;-73
2022/01/13 05:10:24;;;;;;;2.33;1.63;;;;;;;-7.81;87.39;93555.16;4959029;28;20576;-72
2022/01/13 05:12:55;;;;;;;0.90;0.90;;;;;;;-7.83;88.40;93551.84;4959477;28;20564;-73
2022/01/13 05:15:25;;;;;;;1.13;1.13;;;;;;;-7.87;88.63;93550.03;4960250;28;20211;-73
2022/01/13 05:20:41;;;;;;;1.00;1.00;;;;;;;-7.62;86.37;93563.34;4959214;28;20586;-72
2022/01/13 05:23:12;;;;;;;2.00;1.90;;;;;;;-7.68;85.39;93554.88;4960256;28;20249;-73
2022/01/13 05:25:41;;;;;;;0.83;0.83;;;;;;;-7.57;85.28;93565.97;4958615;28;20623;-72
2022/01/13 05:28:08;;;;;;;1.83;1.83;;;;;;;-7.43;86.45;93564.03;4956561;28;20474;-73
2022/01/13 05:30:36;;;;;;;3.13;2.10;;;;;;;-7.22;86.69;93567.31;4945112;28;20591;-73
2022/01/13 05:33:04;;;;;;;2.27;2.17;;;;;;;-7.03;83.73;93586.03;4954997;28;20593;-74
2022/01/13 05:35:31;;;;;;;5.17;3.33;;;;;;;-7.01;82.94;93589.38;4952453;28;20208;-73
2022/01/13 05:37:59;;;;;;;3.33;3.13;;;;;;;-7.19;82.49;93590.34;4951608;28;20614;-73
2022/01/13 05:40:28;;;;;;;4.53;3.67;;;;;;;-7.32;83.92;93585.75;4951793;28;20568;-73
2022/01/13 05:42:55;;;;;;;4.70;2.30;;;;;;;-7.41;83.89;93592.75;4955140;28;20452;-73
2022/01/13 05:45:28;;;;;;;4.80;3.30;;;;;;;-7.48;84.47;93587.53;4953487;28;20208;-73
2022/01/13 05:47:56;;;;;;;8.60;5.40;;;;;;;-7.52;85.65;93584.16;4952629;28;20716;-73
2022/01/13 05:50:24;;;;;;;17.80;9.90;;;;;;;-7.71;86.45;93562.94;4957317;28;20607;-74
2022/01/13 05:52:51;;;;;;;26.20;14.47;;;;;;;-7.63;87.43;93580.44;4952032;28;20473;-73
2022/01/13 05:55:19;;;;;;;36.87;11.03;;;;;;;-7.57;86.71;93581.53;4957036;28;20503;-75
2022/01/13 05:57:48;;;;;;;9.20;8.33;;;;;;;-7.62;87.91;93582.13;4957490;28;20469;-72
2022/01/13 06:00:18;;;;;;;3.97;3.77;;;;;;;-7.47;87.21;93586.78;4954517;28;20286;-72
2022/01/13 06:02:46;;;;;;;3.37;3.20;;;;;;;-7.70;89.00;93580.97;4957490;28;20611;-73
2022/01/13 06:05:13;;;;;;;2.80;2.80;;;;;;;-7.63;88.24;93591.09;4956999;28;20704;-73
2022/01/13 06:07:41;;;;;;;18.37;4.23;;;;;;;-7.53;87.24;93607.84;4956856;28;20681;-73
2022/01/13 06:10:12;;;;;;;5.30;3.80;;;;;;;-7.64;86.83;93611.47;4957667;28;20206;-73
2022/01/13 06:12:39;;;;;;;4.67;4.47;;;;;;;-7.66;86.58;93612.22;4956940;28;20693;-73
2022/01/13 06:15:10;;;;;;;3.17;3.07;;;;;;;-7.60;86.57;93605.91;4957107;28;20445;-72
2022/01/13 06:17:39;;;;;;;4.13;3.93;;;;;;;-7.73;88.55;93617.63;4956967;28;20526;-73
2022/01/13 06:20:08;;;;;;;4.33;3.63;;;;;;;-7.83;90.01;93603.31;4957268;28;20576;-73
2022/01/13 06:22:36;;;;;;;2.67;2.67;;;;;;;-7.81;89.27;93606.66;4956948;28;20663;-73
2022/01/13 06:25:04;;;;;;;13.97;4.23;;;;;;;-7.92;88.84;93600.47;4956600;28;20661;-73
2022/01/13 06:27:31;;;;;;;19.07;7.17;;;;;;;-7.75;88.05;93622.47;4956307;28;20629;-73
2022/01/13 06:29:58;;;;;;;6.53;3.57;;;;;;;-7.69;88.16;93612.91;4956974;28;20218;-74
2022/01/13 06:32:28;;;;;;;2.57;2.50;;;;;;;-7.55;87.00;93621.66;4956658;28;20657;-72
2022/01/13 06:34:55;;;;;;;1.53;1.53;;;;;;;-7.46;86.20;93632.63;4956398;28;20599;-73
2022/01/13 06:37:22;;;;;;;5.83;2.43;;;;;;;-7.44;84.88;93631.91;4956061;28;20520;-73
2022/01/13 06:39:49;;;;;;;2.10;1.80;;;;;;;-7.38;85.65;93631.31;4956437;28;20583;-73
2022/01/13 06:42:17;;;;;;;1.53;1.43;;;;;;;-7.36;85.11;93629.75;4950897;28;20457;-73
2022/01/13 06:44:45;;;;;;;2.60;2.40;;;;;;;-7.35;86.03;93632.28;4956979;28;20322;-73
2022/01/13 06:47:12;;;;;;;3.70;2.23;;;;;;;-7.28;86.05;93634.19;4956048;28;20615;-73
2022/01/13 06:49:41;;;;;;;2.87;2.87;;;;;;;-7.30;85.99;93610.34;4956321;28;20483;-73
2022/01/13 06:52:09;;;;;;;4.27;4.00;;;;;;;-7.13;87.31;93621.66;4956200;28;20293;-74
2022/01/13 06:54:36;;;;;;;8.10;4.40;;;;;;;-7.11;85.82;93629.94;4955754;28;20560;-73
2022/01/13 06:57:05;;;;;;;3.07;2.97;;;;;;;-7.01;85.39;93634.41;4956075;28;20568;-73
2022/01/13 06:59:32;;;;;;;14.03;6.87;;;;;;;-7.01;85.53;93640.94;4952041;28;20670;-72
2022/01/13 07:02:01;;;;;;;21.33;8.23;;;;;;;-6.99;85.18;93642.69;4955182;28;20596;-73
2022/01/13 07:04:33;;;;;;;21.83;8.37;;;;;;;-7.07;85.33;93636.63;4949438;28;20574;-73
2022/01/13 07:07:02;;;;;;;7.30;5.03;;;;;;;-6.98;86.43;93639.44;4951723;28;20623;-73
2022/01/13 07:09:30;;;;;;;8.97;6.87;;;;;;;-6.98;87.75;93639.44;4946621;28;20403;-74
2022/01/13 07:11:57;;;;;;;5.20;4.67;;;;;;;-6.96;86.21;93650.16;4944274;28;20567;-74
2022/01/13 07:14:24;;;;;;;4.57;4.27;;;;;;;-7.27;87.35;93586.78;4945119;28;20495;-73
2022/01/13 07:16:52;;;;;;;6.03;5.33;;;;;;;-6.88;88.54;93635.72;4949137;28;20242;-73
2022/01/13 07:19:20;;;;;;;4.23;3.80;;;;;;;-6.93;88.30;93624.91;4950632;28;20475;-74
2022/01/13 07:21:47;;;;;;;3.53;3.20;;;;;;;-6.76;87.83;93637.00;4953395;28;20471;-73
2022/01/13 07:24:16;;;;;;;4.27;4.03;;;;;;;-6.79;87.41;93629.53;4953145;28;20616;-72
2022/01/13 07:26:43;;;;;;;4.43;4.17;;;;;;;-6.68;88.18;93637.31;4955892;28;20626;-73
2022/01/13 07:29:11;;;;;;;7.30;4.80;;;;;;;-6.60;86.68;93649.88;4951766;28;20588;-74
2022/01/13 07:31:39;;;;;;;4.13;3.87;;;;;;;-6.66;87.30;93628.38;4947232;28;20588;-72
2022/01/13 07:34:07;;;;;;;2.90;2.87;;;;;;;-6.50;87.00;93649.44;4947339;28;20222;-72
2022/01/13 07:36:36;;;;;;;8.17;3.67;;;;;;;-6.60;87.78;93622.84;4954646;28;20227;-73
2022/01/13 07:39:07;;;;;;;2.23;2.23;;;;;;;-6.42;86.11;93653.84;4951375;28;20577;-73
2022/01/13 07:41:38;;;;;;;2.03;2.03;;;;;;;-6.28;86.80;93652.72;4954767;28;20607;-73
2022/01/13 07:44:06;;;;;;;2.87;2.87;;;;;;;-6.30;85.59;93638.69;4951455;28;20584;-73
2022/01/13 07:46:33;;;;;;;2.20;2.17;;;;;;;-6.15;83.79;93668.78;4953698;28;20211;-74
2022/01/13 07:49:01;;;;;;;6.80;3.87;;;;;;;-6.19;85.28;93637.47;4953886;28;20478;-72
2022/01/13 07:51:29;;;;;;;4.57;2.73;;;;;;;-6.04;86.47;93647.84;4955180;28;20569;-73
2022/01/13 07:53:56;;;;;;;1.67;1.67;;;;;;;-5.96;83.53;93666.16;4950299;28;20294;-73
2022/01/13 07:56:25;;;;;;;2.67;2.57;;;;;;;-6.09;83.51;93634.56;4947438;28;20501;-74
2022/01/13 07:58:53;;;;;;;3.47;3.37;;;;;;;-5.86;83.22;93664.84;4947137;28;20561;-73
2022/01/13 08:01:21;;;;;;;1.63;1.63;;;;;;;-5.82;83.86;93664.16;4946537;28;20568;-74
2022/01/13 08:03:48;;;;;;;5.73;5.43;;;;;;;-5.82;83.20;93674.00;4949923;28;20544;-75
2022/01/13 08:06:16;;;;;;;1.67;1.67;;;;;;;-5.75;84.03;93662.75;4955833;28;20573;-73
2022/01/13 08:08:43;;;;;;;4.57;4.30;;;;;;;-5.70;84.41;93662.13;4955337;28;20491;-73
2022/01/13 08:11:10;;;;;;;3.53;3.43;;;;;;;-5.65;82.87;93672.97;4955104;28;20212;-74
2022/01/13 08:13:40;;;;;;;3.93;2.57;;;;;;;-5.64;83.85;93663.97;4955743;28;20520;-73
2022/01/13 08:16:09;;;;;;;3.27;3.13;;;;;;;-5.60;81.79;93673.09;4955523;28;20594;-73
2022/01/13 08:21:23;;;;;;;1.37;1.37;;;;;;;-5.55;81.46;93674.09;4955255;28;20539;-74
2022/01/13 08:23:51;;;;;;;1.20;1.20;;;;;;;-5.53;80.48;93687.31;4955380;28;20592;-74
2022/01/13 08:26:18;;;;;;;1.27;1.27;;;;;;;-5.44;80.86;93677.75;4954088;28;20219;-74
2022/01/13 08:28:46;;;;;;;2.07;2.03;;;;;;;-5.31;81.11;93681.47;4953634;28;20582;-73
2022/01/13 08:31:15;;;;;;;1.43;1.43;;;;;;;-5.18;82.50;93678.63;4953639;28;20557;-73
2022/01/13 08:33:42;;;;;;;2.07;2.07;;;;;;;-5.04;82.74;93670.88;4956674;28;20608;-74
2022/01/13 08:36:09;;;;;;;2.87;2.77;;;;;;;-5.06;82.63;93655.22;4956743;28;20199;-73
2022/01/13 08:38:37;;;;;;;1.93;1.93;;;;;;;-4.89;79.67;93689.41;4956032;28;20820;-74
2022/01/13 08:41:04;;;;;;;0.80;0.80;;;;;;;-4.91;79.11;93674.59;4957087;28;20196;-74
2022/01/13 08:43:33;;;;;;;3.30;3.07;;;;;;;-4.71;80.19;93675.19;4953251;28;20504;-74
2022/01/13 08:46:00;;;;;;;2.30;2.30;;;;;;;-4.69;79.64;93661.28;4952492;28;20631;-75
2022/01/13 08:48:29;;;;;;;4.53;4.20;;;;;;;-4.53;80.42;93665.06;4958036;28;20225;-74
2022/01/13 08:50:56;;;;;;;3.40;3.20;;;;;;;-4.49;80.47;93661.88;4958310;28;20532;-74
2022/01/13 08:53:24;;;;;;;6.90;6.33;;;;;;;-4.38;80.75;93656.47;4958033;28;20201;-76
2022/01/13 08:55:54;;;;;;;12.23;11.10;;;;;;;-4.37;79.54;93663.09;4958357;28;20568;-75
2022/01/13 08:58:22;;;;;;;3.90;3.80;;;;;;;-4.24;78.96;93684.88;4958314;28;20578;-74
2022/01/13 09:00:51;;;;;;;8.97;6.50;;;;;;;-4.15;79.27;93669.47;4958301;28;20227;-74
2022/01/13 09:03:18;;;;;;;2.73;2.57;;;;;;;-4.08;78.63;93678.72;4959304;28;20577;-74
2022/01/13 09:05:47;;;;;;;2.20;2.20;;;;;;;-4.02;79.26;93668.19;4957572;28;20600;-73
2022/01/13 09:08:14;;;;;;;2.43;2.03;;;;;;;-3.96;79.83;93649.47;4957917;28;20477;-75
2022/01/13 09:10:45;;;;;;;2.80;2.80;;;;;;;-3.81;78.32;93677.03;4958248;28;20458;-75
2022/01/13 09:13:15;;;;;;;2.73;2.63;;;;;;;-3.68;77.77;93675.75;4958132;28;20227;-75
2022/01/13 09:15:45;;;;;;;5.80;2.13;;;;;;;-3.55;78.35;93657.97;4957866;28;20318;-74
2022/01/13 09:18:17;;;;;;;2.53;2.37;;;;;;;-3.56;77.17;93648.91;4955693;28;20681;-73
2022/01/13 09:20:47;;;;;;;2.77;2.67;;;;;;;-3.36;75.77;93677.41;4957644;28;20589;-73
2022/01/13 09:23:14;;;;;;;3.90;3.67;;;;;;;-3.41;75.36;93663.28;4957680;28;20553;-73
2022/01/13 09:25:41;;;;;;;2.57;1.93;;;;;;;-3.25;75.17;93669.44;4958013;28;20239;-73
2022/01/13 09:28:09;;;;;;;1.50;1.50;;;;;;;-3.27;74.78;93671.91;4957687;28;20525;-73
2022/01/13 09:30:37;;;;;;;1.33;1.33;;;;;;;-3.42;75.49;93645.16;4958410;28;20484;-73
2022/01/13 09:33:05;;;;;;;4.27;4.07;;;;;;;-3.26;74.19;93677.66;4956594;28;20642;-72
2022/01/13 09:35:32;;;;;;;1.77;1.67;;;;;;;-3.25;73.13;93674.38;4951997;28;20198;-73
2022/01/13 09:38:01;;;;;;;1.70;1.70;;;;;;;-3.15;73.87;93651.56;4952299;28;20524;-73
2022/01/13 09:40:29;;;;;;;2.20;2.00;;;;;;;-3.05;73.64;93654.34;4949678;28;20579;-73
2022/01/13 09:42:56;;;;;;;1.20;1.20;;;;;;;-3.09;74.60;93631.97;4947117;28;20513;-73
2022/01/13 09:45:24;;;;;;;1.07;1.07;;;;;;;-2.89;73.69;93647.28;4950525;28;20631;-73
2022/01/13 09:47:51;;;;;;;1.93;1.93;;;;;;;-2.79;72.61;93661.53;4947745;28;20516;-73
2022/01/13 09:50:21;;;;;;;4.53;4.13;;;;;;;-2.73;71.49;93672.41;4946709;28;20199;-73
2022/01/13 09:52:48;;;;;;;3.60;3.50;;;;;;;-2.76;72.68;93640.16;4950503;28;20578;-73
2022/01/13 09:55:18;;;;;;;39.80;23.83;;;;;;;-2.70;73.11;93641.94;4949595;28;20474;-73
2022/01/13 09:57:48;;;;;;;18.77;14.03;;;;;;;-2.62;72.76;93645.44;4946847;28;20640;-74
2022/01/13 10:00:19;;;;;;;2.77;2.57;;;;;;;-2.53;74.47;93613.50;4954292;28;20651;-73
2022/01/13 10:02:46;;;;;;;4.13;3.87;;;;;;;-2.44;72.26;93632.66;4947694;28;20204;-75
2022/01/13 10:05:16;;;;;;;6.67;6.27;;;;;;;-2.31;73.45;93627.19;4951651;28;20297;-74
2022/01/13 10:07:45;;;;;;;1.63;1.63;;;;;;;-2.21;72.61;93632.34;4953647;28;20516;-75
2022/01/13 10:10:15;;;;;;;4.53;4.33;;;;;;;-2.09;72.12;93626.81;4957360;28;20478;-74
2022/01/13 10:12:46;;;;;;;2.33;2.23;;;;;;;-1.90;72.40;93614.00;4954843;28;20493;-74
2022/01/13 10:18:00;;;;;;;2.10;2.10;;;;;;;0.39;67.74;93629.97;4956891;28;20458;-74
2022/01/13 10:20:28;;;;;;;3.00;2.90;;;;;;;1.35;61.17;93665.81;4957466;28;20519;-73
2022/01/13 10:22:56;;;;;;;3.80;3.57;;;;;;;2.24;58.28;93664.75;4957432;28;20469;-73
2022/01/13 10:25:29;;;;;;;5.57;2.90;;;;;;;3.22;55.77;93680.06;4955666;28;20501;-73
2022/01/13 10:28:12;;;;;;;4.43;4.23;;;;;;;4.02;52.88;93684.25;4943176;28;20204;-73
2022/01/13 10:30:40;;;;;;;3.10;2.90;;;;;;;4.47;51.23;93680.84;4943072;28;20615;-72
2022/01/13 10:33:16;;;;;;;5.03;4.07;;;;;;;5.08;49.79;93693.13;4957473;28;20496;-72
2022/01/13 10:35:44;;;;;;;3.70;3.50;;;;;;;5.54;50.87;93676.16;4938058;28;20549;-72
2022/01/13 10:38:16;;;;;;;8.40;4.87;;;;;;;5.57;47.82;93692.84;4949136;28;20479;-71
2022/01/13 10:40:46;;;;;;;4.43;4.23;;;;;;;6.35;46.54;93676.34;4947893;28;20512;-73
2022/01/13 10:43:16;;;;;;;8.00;7.23;;;;;;;6.62;45.22;93688.63;4956765;28;20598;-73
2022/01/13 10:45:49;;;;;;;7.30;6.20;;;;;;;6.17;45.33;93677.34;4957128;28;20628;-73
2022/01/13 10:48:22;;;;;;;5.33;4.93;;;;;;;5.75;46.22;93658.44;4956500;28;20569;-74
2022/01/13 10:50:51;;;;;;;8.00;7.37;;;;;;;5.15;48.03;93637.16;4954905;28;20630;-73
2022/01/13 10:53:22;;;;;;;4.60;4.30;;;;;;;4.46;48.53;93621.63;4956250;28;20537;-73
2022/01/13 10:55:52;;;;;;;22.77;12.20;;;;;;;4.24;50.43;93601.69;4957114;28;20592;-73
2022/01/13 10:58:26;;;;;;;6.77;6.17;;;;;;;3.89;51.05;93587.59;4957127;28;20557;-73
2022/01/13 11:00:54;;;;;;;9.07;7.50;;;;;;;4.06;50.27;93592.56;4957211;28;20464;-71
2022/01/13 11:03:23;;;;;;;5.93;5.40;;;;;;;4.33;49.76;93599.19;4957239;28;20527;-71
2022/01/13 11:05:52;;;;;;;11.40;5.23;;;;;;;4.50;48.78;93577.44;4956798;28;20239;-72
2022/01/13 11:08:25;;;;;;;6.10;5.80;;;;;;;5.04;48.49;93596.31;4956844;28;20573;-72
2022/01/13 11:10:55;;;;;;;8.17;7.33;;;;;;;5.32;47.91;93589.44;4952464;28;20629;-73
2022/01/13 11:13:27;;;;;;;5.27;4.60;;;;;;;5.67;46.68;93592.50;4941204;28;20204;-73
2022/01/13 11:15:55;;;;;;;5.63;5.07;;;;;;;5.82;45.05;93597.38;4950124;28;20584;-73
2022/01/13 11:18:25;;;;;;;6.67;5.87;;;;;;;5.81;45.60;93582.34;4947220;28;20507;-73
2022/01/13 11:20:53;;;;;;;6.17;5.23;;;;;;;5.79;45.79;93574.84;4946182;28;20241;-73
2022/01/13 11:23:22;;;;;;;4.47;4.13;;;;;;;5.82;45.54;93577.31;4954826;28;20477;-73
2022/01/13 11:25:53;;;;;;;8.23;6.87;;;;;;;5.94;45.68;93566.38;4950928;28;20498;-73
2022/01/13 11:28:21;;;;;;;6.97;6.33;;;;;;;5.24;45.26;93568.66;4953525;28;20467;-72
2022/01/13 11:30:51;;;;;;;5.33;4.93;;;;;;;4.69;46.46;93568.13;4953880;28;20492;-72
2022/01/13 11:33:18;;;;;;;4.93;4.60;;;;;;;5.00;47.44;93542.94;4955221;28;20506;-72
2022/01/13 11:35:53;;;;;;;9.17;6.13;;;;;;;5.55;44.80;93560.03;4952401;28;20477;-73
2022/01/13 11:38:21;;;;;;;5.80;5.20;;;;;;;6.10;42.84;93579.56;4954139;28;20475;-74
2022/01/13 11:40:51;;;;;;;6.13;5.50;;;;;;;5.99;41.67;93587.22;4954678;28;20557;-73
2022/01/13 11:43:28;;;;;;;6.60;4.23;;;;;;;6.28;41.86;93591.09;4954900;28;20513;-73
2022/01/13 11:46:01;;;;;;;9.07;4.03;;;;;;;6.59;41.35;93585.69;4952156;28;20484;-74
2022/01/13 11:48:30;;;;;;;2.90;2.77;;;;;;;6.90;40.69;93578.63;4953967;28;20576;-74
2022/01/13 11:51:15;;;;;;;5.43;3.33;;;;;;;7.06;39.83;93581.75;4955725;28;20557;-73
2022/01/13 11:53:55;;;;;;;2.43;2.33;;;;;;;7.20;38.78;93584.91;4951754;28;20860;-74
2022/01/13 11:56:24;;;;;;;4.70;4.40;;;;;;;7.25;39.50;93585.66;4950689;28;20575;-73
2022/01/13 11:58:52;;;;;;;5.20;4.90;;;;;;;7.66;40.85;93572.44;4951527;28;20472;-73
2022/01/13 12:01:25;;;;;;;4.87;4.57;;;;;;;7.63;40.41;93564.94;4950072;28;20632;-73
2022/01/13 12:03:54;;;;;;;4.67;4.47;;;;;;;7.72;41.30;93559.75;4950021;28;20596;-73